Time;durP1;ratioP1;P1;durP2;ratioP2;P2;SDS_P1;SDS_P2;PMS_P1;PMS_P2;Temp;Humidity;BMP_temperature;BMP_pressure;BME280_temperature;BME280_humidity;BME280_pressure;Samples;Min_cycle;Max_cycle;Signal;HPM_P1;HPM_P2
2022/08/07 00:01:37;;;;;;;12.10;6.03;;;;;;;;;;7310163;19;162679;-25
2022/08/07 00:04:09;;;;;;;17.50;6.30;;;;;;;;;;7314894;19;163131;-17
2022/08/07 00:06:42;;;;;;;10.05;5.45;;;;;;;;;;7312729;19;154803;-17
2022/08/07 00:09:15;;;;;;;12.82;6.03;;;;;;;;;;7312848;19;154186;-17
2022/08/07 00:11:47;;;;;;;;;;;;;;;;;;7314243;19;162192;-16
2022/08/07 00:14:20;;;;;;;19.15;6.03;;;;;;;;;;7314103;19;163631;-17
2022/08/07 00:17:00;;;;;;;13.20;6.55;;;;;;;;;;7313214;19;154467;-16
2022/08/07 00:19:36;;;;;;;13.75;6.22;;;;;;;;;;7310103;19;154407;-17
2022/08/07 00:22:08;;;;;;;16.33;5.95;;;;;;;;;;7314239;19;162253;-17
2022/08/07 00:24:40;;;;;;;14.15;6.25;;;;;;;;;;7310295;19;163330;-16
2022/08/07 00:27:11;;;;;;;16.77;7.07;;;;;;;;;;7314120;19;155037;-16
2022/08/07 00:29:42;;;;;;;10.75;6.05;;;;;;;;;;7311525;19;154316;-16
2022/08/07 00:32:17;;;;;;;16.13;6.10;;;;;;;;;;7312533;19;162293;-16
2022/08/07 00:34:48;;;;;;;11.32;5.88;;;;;;;;;;7313919;19;162970;-17
2022/08/07 00:37:20;;;;;;;15.23;5.88;;;;;;;;;;7315483;19;154458;-17
2022/08/07 00:39:52;;;;;;;9.57;5.15;;;;;;;;;;7313993;19;154036;-18
2022/08/07 00:42:24;;;;;;;11.23;5.90;;;;;;;;;;7313286;19;162885;-17
2022/08/07 00:44:55;;;;;;;13.05;6.10;;;;;;;;;;7314889;19;162879;-16
2022/08/07 00:47:29;;;;;;;12.10;5.50;;;;;;;;;;7315011;19;154762;-17
2022/08/07 00:50:00;;;;;;;11.38;5.10;;;;;;;;;;7313255;19;154093;-16
2022/08/07 00:52:32;;;;;;;10.85;5.32;;;;;;;;;;7313128;19;162385;-16
2022/08/07 00:55:03;;;;;;;11.77;5.35;;;;;;;;;;7314636;19;162882;-16
2022/08/07 00:57:34;;;;;;;12.50;5.22;;;;;;;;;;7313289;19;154339;-17
2022/08/07 01:00:08;;;;;;;13.57;5.37;;;;;;;;;;7313143;19;154162;-16
2022/08/07 01:02:44;;;;;;;10.13;4.88;;;;;;;;;;7314170;19;162340;-15
2022/08/07 01:05:15;;;;;;;13.07;5.05;;;;;;;;;;7312244;19;162869;-17
2022/08/07 01:07:47;;;;;;;10.50;5.18;;;;;;;;;;7313595;19;154390;-24
2022/08/07 01:10:19;;;;;;;13.05;4.95;;;;;;;;;;7313167;19;154120;-17
2022/08/07 01:12:52;;;;;;;10.18;5.22;;;;;;;;;;7313033;19;162274;-17
2022/08/07 01:15:26;;;;;;;10.13;5.05;;;;;;;;;;7314116;19;163168;-16
2022/08/07 01:18:00;;;;;;;13.60;5.70;;;;;;;;;;7313991;19;154526;-16
2022/08/07 01:20:39;;;;;;;12.45;5.50;;;;;;;;;;7311664;19;154124;-17
2022/08/07 01:23:13;;;;;;;12.05;5.15;;;;;;;;;;7310682;19;162749;-17
2022/08/07 01:25:46;;;;;;;15.75;5.38;;;;;;;;;;7312385;19;163462;-16
2022/08/07 01:28:18;;;;;;;8.60;4.77;;;;;;;;;;7314022;19;154374;-14
2022/08/07 01:30:52;;;;;;;10.63;4.72;;;;;;;;;;7311016;19;154001;-16
2022/08/07 01:33:24;;;;;;;;;;;;;;;;;;7312910;19;162680;-16
2022/08/07 01:35:59;;;;;;;9.80;5.13;;;;;;;;;;7311412;19;162974;-17
2022/08/07 01:38:35;;;;;;;11.68;5.03;;;;;;;;;;7312305;19;154735;-16
2022/08/07 01:41:15;;;;;;;11.45;4.80;;;;;;;;;;7311404;19;154298;-17
2022/08/07 01:43:47;;;;;;;11.77;5.18;;;;;;;;;;7313756;19;162238;-16
2022/08/07 01:46:20;;;;;;;10.70;4.90;;;;;;;;;;7311518;19;163283;-17
2022/08/07 01:48:53;;;;;;;10.90;4.78;;;;;;;;;;7312364;19;155601;-17
2022/08/07 01:51:28;;;;;;;7.00;5.25;;;;;;;;;;7311307;19;154190;-17
2022/08/07 01:54:05;;;;;;;9.90;4.90;;;;;;;;;;7310764;19;162207;-16
2022/08/07 01:56:45;;;;;;;8.77;4.95;;;;;;;;;;7310815;19;162974;-17
2022/08/07 01:59:24;;;;;;;11.02;4.90;;;;;;;;;;7313033;19;154654;-16
2022/08/07 02:02:01;;;;;;;9.10;4.57;;;;;;;;;;7311351;19;154033;-17
2022/08/07 02:04:42;;;;;;;10.93;5.45;;;;;;;;;;7309784;19;162723;-17
2022/08/07 02:07:18;;;;;;;9.73;4.50;;;;;;;;;;7310062;19;163216;-18
2022/08/07 02:09:54;;;;;;;9.40;5.22;;;;;;;;;;7310939;19;155004;-17
2022/08/07 02:12:28;;;;;;;11.18;5.35;;;;;;;;;;7311247;19;154166;-17
2022/08/07 02:15:02;;;;;;;9.82;4.68;;;;;;;;;;7310877;19;162152;-16
2022/08/07 02:17:41;;;;;;;13.45;5.13;;;;;;;;;;7310721;19;162951;-16
2022/08/07 02:20:13;;;;;;;12.45;4.65;;;;;;;;;;7312934;19;154431;-16
2022/08/07 02:22:45;;;;;;;7.03;4.28;;;;;;;;;;7310846;19;153937;-17
2022/08/07 02:25:21;;;;;;;9.95;5.07;;;;;;;;;;7309854;19;161899;-16
2022/08/07 02:28:00;;;;;;;7.65;4.15;;;;;;;;;;7310294;19;162967;-16
2022/08/07 02:30:32;;;;;;;;;;;;;;;;;;7312715;19;155529;-16
2022/08/07 02:33:06;;;;;;;10.90;4.40;;;;;;;;;;7312165;19;154144;-16
2022/08/07 02:35:38;;;;;;;12.50;4.78;;;;;;;;;;7310204;19;162844;-17
2022/08/07 02:38:12;;;;;;;10.23;3.92;;;;;;;;;;7310138;19;162794;-16
2022/08/07 02:40:47;;;;;;;13.48;4.60;;;;;;;;;;7307649;19;154715;-16
2022/08/07 02:43:21;;;;;;;12.55;4.70;;;;;;;;;;7310573;19;154595;-17
2022/08/07 02:45:56;;;;;;;12.32;5.03;;;;;;;;;;7307488;19;162378;-16
2022/08/07 02:48:30;;;;;;;12.48;4.47;;;;;;;;;;7309741;19;162908;-16
2022/08/07 02:51:06;;;;;;;11.43;5.07;;;;;;;;;;7310480;19;154606;-16
2022/08/07 02:53:41;;;;;;;13.23;5.22;;;;;;;;;;7311672;19;154546;-16
2022/08/07 02:56:21;;;;;;;11.68;4.00;;;;;;;;;;7311371;19;162263;-16
2022/08/07 02:58:55;;;;;;;9.98;4.20;;;;;;;;;;7309880;19;163291;-16
2022/08/07 03:01:30;;;;;;;11.77;4.60;;;;;;;;;;7313794;19;155121;-16
2022/08/07 03:04:03;;;;;;;12.95;4.53;;;;;;;;;;7316465;19;154353;-16
2022/08/07 03:06:35;;;;;;;12.57;4.47;;;;;;;;;;7317707;19;162771;-18
2022/08/07 03:09:09;;;;;;;13.40;4.70;;;;;;;;;;7316236;19;163312;-16
2022/08/07 03:11:43;;;;;;;11.07;4.70;;;;;;;;;;7316211;19;154494;-17
2022/08/07 03:14:16;;;;;;;10.13;3.92;;;;;;;;;;7317905;19;154077;-16
2022/08/07 03:16:47;;;;;;;;;;;;;;;;;;7316652;19;162693;-16
2022/08/07 03:19:19;;;;;;;9.27;4.18;;;;;;;;;;7316079;19;163483;-16
2022/08/07 03:21:52;;;;;;;15.02;4.72;;;;;;;;;;7316250;19;154450;-16
2022/08/07 03:24:23;;;;;;;13.85;4.75;;;;;;;;;;7317202;19;154035;-16
2022/08/07 03:27:01;;;;;;;11.30;4.57;;;;;;;;;;7315825;19;162240;-16
2022/08/07 03:29:46;;;;;;;21.08;4.75;;;;;;;;;;7315515;19;163396;-16
2022/08/07 03:32:21;;;;;;;12.80;4.57;;;;;;;;;;7315717;19;154756;-16
2022/08/07 03:34:56;;;;;;;9.73;4.50;;;;;;;;;;7315968;19;154267;-16
2022/08/07 03:37:29;;;;;;;9.57;4.80;;;;;;;;;;7315256;19;162702;-16
2022/08/07 03:40:01;;;;;;;12.85;4.72;;;;;;;;;;7313739;19;163481;-16
2022/08/07 03:42:36;;;;;;;10.45;4.85;;;;;;;;;;7315664;19;154702;-16
2022/08/07 03:45:10;;;;;;;7.65;4.20;;;;;;;;;;7314766;19;154014;-16
2022/08/07 03:47:42;;;;;;;10.23;4.45;;;;;;;;;;7315181;19;162782;-17
2022/08/07 03:50:14;;;;;;;11.40;5.13;;;;;;;;;;7314878;19;163468;-17
2022/08/07 03:52:46;;;;;;;11.87;5.03;;;;;;;;;;7315593;19;154824;-19
2022/08/07 03:55:18;;;;;;;17.08;5.45;;;;;;;;;;7314953;19;154414;-16
2022/08/07 03:57:53;;;;;;;10.30;4.17;;;;;;;;;;7316513;19;162811;-16
2022/08/07 04:00:26;;;;;;;7.50;4.05;;;;;;;;;;7314455;19;163329;-16
2022/08/07 04:02:57;;;;;;;12.25;4.38;;;;;;;;;;7315053;19;154447;-16
2022/08/07 04:05:36;;;;;;;12.20;4.60;;;;;;;;;;7315464;19;154792;-17
2022/08/07 04:08:08;;;;;;;10.43;4.40;;;;;;;;;;7314388;19;162225;-16
2022/08/07 04:10:40;;;;;;;10.20;4.80;;;;;;;;;;7315904;19;163198;-16
2022/08/07 04:13:17;;;;;;;11.15;4.53;;;;;;;;;;7315373;19;154763;-16
2022/08/07 04:15:49;;;;;;;7.72;4.25;;;;;;;;;;7316135;19;153975;-16
2022/08/07 04:18:22;;;;;;;9.35;3.88;;;;;;;;;;7314164;19;162726;-16
2022/08/07 04:20:53;;;;;;;10.80;4.28;;;;;;;;;;7315627;19;163222;-16
2022/08/07 04:23:27;;;;;;;9.45;3.90;;;;;;;;;;7314380;19;154490;-16
2022/08/07 04:25:58;;;;;;;8.13;4.23;;;;;;;;;;7312975;19;154128;-16
2022/08/07 04:28:33;;;;;;;9.67;4.10;;;;;;;;;;7313813;19;162249;-16
2022/08/07 04:31:05;;;;;;;10.55;4.47;;;;;;;;;;7313836;19;162898;-16
2022/08/07 04:33:38;;;;;;;11.07;4.00;;;;;;;;;;7314340;19;154966;-16
2022/08/07 04:36:10;;;;;;;;;;;;;;;;;;7316334;19;154157;-16
2022/08/07 04:38:42;;;;;;;8.07;4.00;;;;;;;;;;7313677;19;162568;-16
2022/08/07 04:41:13;;;;;;;5.90;4.10;;;;;;;;;;7313505;19;163461;-16
2022/08/07 04:43:50;;;;;;;9.70;4.10;;;;;;;;;;7313995;19;155070;-16
2022/08/07 04:46:30;;;;;;;8.25;3.97;;;;;;;;;;7312400;19;154222;-16
2022/08/07 04:49:11;;;;;;;8.98;3.92;;;;;;;;;;7314994;19;162377;-17
2022/08/07 04:51:50;;;;;;;5.63;3.50;;;;;;;;;;7313143;19;162833;-16
2022/08/07 04:54:29;;;;;;;7.35;3.85;;;;;;;;;;7315180;19;154401;-15
2022/08/07 04:57:10;;;;;;;7.33;3.77;;;;;;;;;;7313856;19;154081;-16
2022/08/07 04:59:51;;;;;;;10.77;4.25;;;;;;;;;;7312993;19;162808;-16
2022/08/07 05:02:29;;;;;;;7.53;3.63;;;;;;;;;;7314774;19;162862;-16
2022/08/07 05:05:06;;;;;;;10.18;4.10;;;;;;;;;;7313411;19;155085;-16
2022/08/07 05:07:42;;;;;;;8.00;4.03;;;;;;;;;;7312384;19;154022;-16
2022/08/07 05:10:18;;;;;;;6.60;3.63;;;;;;;;;;7312629;19;162702;-16
2022/08/07 05:12:54;;;;;;;7.97;3.40;;;;;;;;;;7312504;19;162969;-16
2022/08/07 05:15:36;;;;;;;8.57;3.47;;;;;;;;;;7313040;19;154370;-16
2022/08/07 05:18:11;;;;;;;8.20;3.88;;;;;;;;;;7312791;19;154057;-16
2022/08/07 05:20:51;;;;;;;7.75;3.42;;;;;;;;;;7312340;19;162331;-16
2022/08/07 05:23:27;;;;;;;7.53;3.47;;;;;;;;;;7310099;19;162811;-17
2022/08/07 05:26:00;;;;;;;4.40;3.30;;;;;;;;;;7312032;19;154568;-17
2022/08/07 05:28:33;;;;;;;6.15;3.53;;;;;;;;;;7312581;19;154754;-16
2022/08/07 05:31:10;;;;;;;7.90;3.83;;;;;;;;;;7312069;19;162637;-15
2022/08/07 05:33:42;;;;;;;6.38;3.88;;;;;;;;;;7313692;19;163292;-16
2022/08/07 05:36:14;;;;;;;;;;;;;;;;;;7313233;19;154382;-16
2022/08/07 05:38:45;;;;;;;6.28;3.60;;;;;;;;;;7312104;19;154361;-16
2022/08/07 05:41:17;;;;;;;5.88;3.92;;;;;;;;;;7312006;19;162345;-17
2022/08/07 05:43:54;;;;;;;6.45;3.55;;;;;;;;;;7311833;19;163379;-16
2022/08/07 05:46:28;;;;;;;8.27;3.72;;;;;;;;;;7311678;19;154508;-16
2022/08/07 05:49:01;;;;;;;8.90;4.05;;;;;;;;;;7311998;19;153965;-16
2022/08/07 05:51:36;;;;;;;5.35;3.60;;;;;;;;;;7311737;19;162356;-16
2022/08/07 05:54:07;;;;;;;6.13;3.95;;;;;;;;;;7311558;19;162846;-16
2022/08/07 05:56:42;;;;;;;9.00;4.05;;;;;;;;;;7312003;19;154584;-16
2022/08/07 05:59:17;;;;;;;6.15;4.15;;;;;;;;;;7313346;19;154526;-16
2022/08/07 06:01:56;;;;;;;4.30;3.47;;;;;;;;;;7311667;19;162847;-16
2022/08/07 06:04:29;;;;;;;6.78;3.60;;;;;;;;;;7311181;19;162892;-16
2022/08/07 06:07:04;;;;;;;9.85;3.70;;;;;;;;;;7310544;19;155159;-16
2022/08/07 06:09:39;;;;;;;9.95;3.85;;;;;;;;;;7311705;19;153633;-16
2022/08/07 06:12:10;;;;;;;6.65;3.75;;;;;;;;;;7311094;19;162314;-16
2022/08/07 06:14:42;;;;;;;7.13;3.45;;;;;;;;;;7312571;19;162902;-16
2022/08/07 06:17:16;;;;;;;6.45;3.80;;;;;;;;;;7311707;19;154458;-16
2022/08/07 06:19:48;;;;;;;7.38;4.07;;;;;;;;;;7312614;19;154023;-20
2022/08/07 06:22:21;;;;;;;8.90;3.80;;;;;;;;;;7310719;19;162388;-16
2022/08/07 06:24:59;;;;;;;6.00;3.13;;;;;;;;;;7310595;19;162927;-16
2022/08/07 06:27:32;;;;;;;6.28;3.38;;;;;;;;;;7309485;19;155075;-16
2022/08/07 06:30:03;;;;;;;6.68;3.55;;;;;;;;;;7312480;19;154316;-16
2022/08/07 06:32:37;;;;;;;6.78;4.03;;;;;;;;;;7310639;19;162892;-16
2022/08/07 06:35:09;;;;;;;5.20;3.40;;;;;;;;;;7309772;19;163214;-16
2022/08/07 06:37:40;;;;;;;9.82;3.67;;;;;;;;;;7312100;19;154845;-16
2022/08/07 06:40:13;;;;;;;7.55;3.53;;;;;;;;;;7310058;19;154407;-16
2022/08/07 06:42:46;;;;;;;7.97;3.75;;;;;;;;;;7310237;19;163042;-16
2022/08/07 06:45:28;;;;;;;5.83;3.57;;;;;;;;;;7310179;19;163428;-16
2022/08/07 06:48:07;;;;;;;7.10;3.85;;;;;;;;;;7308379;19;154746;-16
2022/08/07 06:50:47;;;;;;;8.37;3.47;;;;;;;;;;7310244;19;154184;-16
2022/08/07 06:53:22;;;;;;;5.88;3.78;;;;;;;;;;7310042;19;162254;-16
2022/08/07 06:55:53;;;;;;;;;;;;;;;;;;7310577;19;163261;-17
2022/08/07 06:58:27;;;;;;;7.00;3.75;;;;;;;;;;7310277;19;154802;-17
2022/08/07 07:01:10;;;;;;;7.00;3.78;;;;;;;;;;7309862;19;154484;-16
2022/08/07 07:03:44;;;;;;;3.72;3.20;;;;;;;;;;7309699;19;162263;-16
2022/08/07 07:06:15;;;;;;;8.77;4.00;;;;;;;;;;7311076;19;163258;-16
2022/08/07 07:08:46;;;;;;;7.75;3.50;;;;;;;;;;7308920;19;154373;-16
2022/08/07 07:11:18;;;;;;;6.53;4.55;;;;;;;;;;7311123;19;153979;-17
2022/08/07 07:13:52;;;;;;;7.53;4.03;;;;;;;;;;7309079;19;162275;-16
2022/08/07 07:16:27;;;;;;;9.30;3.58;;;;;;;;;;7310481;19;163181;-16
2022/08/07 07:19:06;;;;;;;6.10;4.30;;;;;;;;;;7309499;19;154885;-16
2022/08/07 07:21:42;;;;;;;9.32;4.32;;;;;;;;;;7310627;19;153535;-17
2022/08/07 07:24:15;;;;;;;9.50;5.38;;;;;;;;;;7310440;19;162183;-17
2022/08/07 07:26:48;;;;;;;11.45;4.85;;;;;;;;;;7310332;19;163325;-17
2022/08/07 07:29:21;;;;;;;;;;;;;;;;;;7309004;19;154428;-17
2022/08/07 07:31:57;;;;;;;8.15;4.43;;;;;;;;;;7310555;19;154226;-18
2022/08/07 07:34:33;;;;;;;11.48;4.95;;;;;;;;;;7309843;19;162723;-17
2022/08/07 07:37:07;;;;;;;11.95;5.20;;;;;;;;;;7310108;19;162921;-17
2022/08/07 07:39:41;;;;;;;11.75;4.78;;;;;;;;;;7308634;19;154418;-17
2022/08/07 07:42:14;;;;;;;9.23;4.47;;;;;;;;;;7309544;19;154462;-17
2022/08/07 07:44:46;;;;;;;;;;;;;;;;;;7310083;19;162173;-17
2022/08/07 07:47:19;;;;;;;16.33;6.22;;;;;;;;;;7312640;19;163035;-15
2022/08/07 07:49:54;;;;;;;10.05;5.07;;;;;;;;;;7316789;19;154474;-16
2022/08/07 07:52:28;;;;;;;12.00;4.95;;;;;;;;;;7316908;19;154085;-15
2022/08/07 07:54:59;;;;;;;15.20;4.72;;;;;;;;;;7316222;19;162662;-18
2022/08/07 07:57:31;;;;;;;9.20;4.60;;;;;;;;;;7316116;19;163304;-16
2022/08/07 08:00:04;;;;;;;9.17;4.93;;;;;;;;;;7316625;19;154390;-16
2022/08/07 08:02:43;;;;;;;11.57;4.70;;;;;;;;;;7316505;19;153937;-15
2022/08/07 08:05:19;;;;;;;13.85;4.80;;;;;;;;;;7315815;19;162320;-16
2022/08/07 08:07:51;;;;;;;12.73;4.70;;;;;;;;;;7315031;19;162824;-16
2022/08/07 08:10:23;;;;;;;12.15;4.80;;;;;;;;;;7316399;19;154394;-15
2022/08/07 08:12:55;;;;;;;11.82;4.50;;;;;;;;;;7316059;19;154589;-15
2022/08/07 08:15:28;;;;;;;7.65;4.63;;;;;;;;;;7315575;19;162278;-15
2022/08/07 08:18:00;;;;;;;14.40;5.07;;;;;;;;;;7315329;19;162793;-16
2022/08/07 08:20:36;;;;;;;14.40;5.15;;;;;;;;;;7315969;19;154375;-16
2022/08/07 08:28:42;;;;;;;13.13;4.70;;;;;;;;;;7314094;19;162765;-16
2022/08/07 08:31:19;;;;;;;13.10;6.03;;;;;;;;;;7315515;19;154980;-16
2022/08/07 08:33:53;;;;;;;9.73;4.97;;;;;;;;;;7315452;19;154134;-16
2022/08/07 08:36:31;;;;;;;14.73;5.25;;;;;;;;;;7314577;19;163214;-16
2022/08/07 08:39:05;;;;;;;15.65;4.68;;;;;;;;;;7312495;19;163491;-15
2022/08/07 08:41:44;;;;;;;15.80;5.35;;;;;;;;;;7315350;19;154388;-17
2022/08/07 08:44:21;;;;;;;11.85;5.25;;;;;;;;;;7315265;19;154418;-16
2022/08/07 08:47:01;;;;;;;15.30;5.18;;;;;;;;;;7313319;19;162380;-15
2022/08/07 08:49:41;;;;;;;15.20;5.13;;;;;;;;;;7312736;19;163184;-17
2022/08/07 08:52:21;;;;;;;12.85;5.40;;;;;;;;;;7314882;19;154393;-16
2022/08/07 08:54:58;;;;;;;14.52;5.60;;;;;;;;;;7314809;19;154363;-16
2022/08/07 08:57:39;;;;;;;13.82;4.97;;;;;;;;;;7314436;19;162354;-16
2022/08/07 09:00:12;;;;;;;9.20;4.50;;;;;;;;;;7314330;19;163202;-16
2022/08/07 09:02:53;;;;;;;11.40;4.47;;;;;;;;;;7311127;19;154410;-15
2022/08/07 09:05:33;;;;;;;11.15;4.82;;;;;;;;;;7313722;19;154012;-15
2022/08/07 09:08:19;;;;;;;19.05;6.07;;;;;;;;;;7313276;19;162181;-16
2022/08/07 09:10:59;;;;;;;17.52;5.78;;;;;;;;;;7313942;19;162759;-16
2022/08/07 09:13:37;;;;;;;16.17;5.75;;;;;;;;;;7312946;19;154110;-16
2022/08/07 09:16:19;;;;;;;20.25;7.13;;;;;;;;;;7314101;19;153928;-15
2022/08/07 09:19:13;;;;;;;17.60;6.32;;;;;;;;;;7311332;19;162344;-15
2022/08/07 09:21:54;;;;;;;15.18;6.05;;;;;;;;;;7313619;19;162876;-16
2022/08/07 09:24:42;;;;;;;14.20;6.15;;;;;;;;;;7312508;19;154880;-16
2022/08/07 09:27:25;;;;;;;18.88;6.15;;;;;;;;;;7313299;19;154107;-16
2022/08/07 09:30:04;;;;;;;17.02;5.75;;;;;;;;;;7310957;19;162297;-15
2022/08/07 09:33:06;;;;;;;12.88;5.22;;;;;;;;;;7312685;19;162826;-16
2022/08/07 09:35:46;;;;;;;14.98;5.78;;;;;;;;;;7314162;19;156049;-17
2022/08/07 09:38:26;;;;;;;10.98;4.78;;;;;;;;;;7313240;19;154014;-16
2022/08/07 09:41:12;;;;;;;11.52;4.55;;;;;;;;;;7310580;19;162399;-17
2022/08/07 09:44:00;;;;;;;15.77;5.88;;;;;;;;;;7313309;19;163392;-17
2022/08/07 09:46:44;;;;;;;14.63;5.53;;;;;;;;;;7313611;19;154470;-17
2022/08/07 09:49:27;;;;;;;12.35;4.90;;;;;;;;;;7312565;19;154035;-18
2022/08/07 09:52:07;;;;;;;18.35;4.93;;;;;;;;;;7313117;19;162066;-17
2022/08/07 09:54:44;;;;;;;16.35;5.50;;;;;;;;;;7312817;19;162790;-17
2022/08/07 09:57:40;;;;;;;12.55;5.60;;;;;;;;;;7313376;19;154508;-17
2022/08/07 10:00:14;;;;;;;11.82;4.05;;;;;;;;;;7311057;19;154541;-19
2022/08/07 10:03:02;;;;;;;13.18;4.53;;;;;;;;;;7310620;19;162286;-18
2022/08/07 10:05:55;;;;;;;9.98;3.92;;;;;;;;;;7312471;19;162882;-17
2022/08/07 10:08:58;;;;;;;9.87;4.77;;;;;;;;;;7312406;19;154422;-16
2022/08/07 10:11:46;;;;;;;14.05;5.20;;;;;;;;;;7312077;19;154788;-17
2022/08/07 10:14:34;;;;;;;9.27;4.40;;;;;;;;;;7312290;19;162602;-17
2022/08/07 10:17:19;;;;;;;11.98;5.10;;;;;;;;;;7312086;19;163374;-17
2022/08/07 10:20:13;;;;;;;10.57;4.32;;;;;;;;;;7312852;19;154402;-18
2022/08/07 10:23:11;;;;;;;8.80;4.90;;;;;;;;;;7312274;19;154012;-18
2022/08/07 10:25:59;;;;;;;8.98;4.20;;;;;;;;;;7311896;19;162628;-16
2022/08/07 10:28:48;;;;;;;8.57;3.75;;;;;;;;;;7312239;19;162774;-17
2022/08/07 10:31:43;;;;;;;15.65;5.10;;;;;;;;;;7309481;19;154514;-17
2022/08/07 10:34:30;;;;;;;10.35;4.65;;;;;;;;;;7310780;19;154242;-16
2022/08/07 10:37:12;;;;;;;11.02;4.53;;;;;;;;;;7311598;19;162182;-16
2022/08/07 10:39:56;;;;;;;8.10;4.05;;;;;;;;;;7310211;19;163491;-16
2022/08/07 10:42:37;;;;;;;10.93;4.70;;;;;;;;;;7312252;19;154558;-16
2022/08/07 10:45:19;;;;;;;7.60;3.85;;;;;;;;;;7311827;19;154013;-15
2022/08/07 10:48:05;;;;;;;14.80;4.80;;;;;;;;;;7311356;19;162817;-16
2022/08/07 10:50:41;;;;;;;8.65;4.20;;;;;;;;;;7307911;19;163542;-16
2022/08/07 10:53:25;;;;;;;7.85;3.72;;;;;;;;;;7311707;19;154984;-16
2022/08/07 10:56:06;;;;;;;13.68;4.50;;;;;;;;;;7311294;19;154308;-16
2022/08/07 10:59:03;;;;;;;11.20;4.20;;;;;;;;;;7310950;19;162976;-16
2022/08/07 11:01:40;;;;;;;11.07;4.22;;;;;;;;;;7310916;19;162743;-16
2022/08/07 11:04:25;;;;;;;7.30;3.53;;;;;;;;;;7309535;19;154368;-16
2022/08/07 11:07:08;;;;;;;9.68;4.72;;;;;;;;;;7311098;19;153940;-16
2022/08/07 11:09:46;;;;;;;9.35;4.35;;;;;;;;;;7310566;19;162790;-15
2022/08/07 11:12:21;;;;;;;7.53;3.60;;;;;;;;;;7308130;19;162939;-16
2022/08/07 11:14:57;;;;;;;10.40;3.90;;;;;;;;;;7310858;19;154334;-16
2022/08/07 11:17:34;;;;;;;9.05;3.70;;;;;;;;;;7310909;19;154013;-16
2022/08/07 11:20:15;;;;;;;6.18;3.60;;;;;;;;;;7310299;19;162351;-16
2022/08/07 11:22:55;;;;;;;6.40;3.92;;;;;;;;;;7314509;19;162344;-16
2022/08/07 11:25:35;;;;;;;8.38;3.38;;;;;;;;;;7318373;19;154526;-16
2022/08/07 11:28:12;;;;;;;13.65;4.03;;;;;;;;;;7314428;19;154128;-16
2022/08/07 11:30:51;;;;;;;11.15;4.03;;;;;;;;;;7315170;19;162328;-16
2022/08/07 11:33:30;;;;;;;8.55;3.88;;;;;;;;;;7316482;19;162928;-16
2022/08/07 11:36:16;;;;;;;9.05;4.18;;;;;;;;;;7315474;19;154398;-16
2022/08/07 11:38:55;;;;;;;7.97;3.80;;;;;;;;;;7315954;19;154380;-16
2022/08/07 11:41:32;;;;;;;8.80;3.53;;;;;;;;;;7316329;19;162231;-15
2022/08/07 11:44:15;;;;;;;8.45;3.67;;;;;;;;;;7316231;19;162867;-15
2022/08/07 11:47:00;;;;;;;13.17;4.40;;;;;;;;;;7316777;19;154379;-15
2022/08/07 11:49:55;;;;;;;13.57;3.67;;;;;;;;;;7316460;19;154429;-16
2022/08/07 11:52:44;;;;;;;10.35;3.30;;;;;;;;;;7313808;19;162267;-16
2022/08/07 11:55:27;;;;;;;7.45;3.58;;;;;;;;;;7316110;19;163164;-16
2022/08/07 11:58:11;;;;;;;9.13;4.03;;;;;;;;;;7316412;19;154449;-16
2022/08/07 12:00:56;;;;;;;11.60;3.63;;;;;;;;;;7316035;19;153974;-16
2022/08/07 12:03:55;;;;;;;11.20;3.78;;;;;;;;;;7315942;19;162305;-17
2022/08/07 12:06:45;;;;;;;8.75;3.95;;;;;;;;;;7315798;19;162898;-16
2022/08/07 12:09:27;;;;;;;7.75;2.97;;;;;;;;;;7316650;19;154512;-16
2022/08/07 12:12:07;;;;;;;7.55;3.97;;;;;;;;;;7314390;19;154055;-17
2022/08/07 12:14:50;;;;;;;8.23;3.97;;;;;;;;;;7314256;19;162737;-16
2022/08/07 12:17:25;;;;;;;6.78;3.60;;;;;;;;;;7315555;19;162802;-16
2022/08/07 12:20:00;;;;;;;8.32;3.63;;;;;;;;;;7315864;19;154412;-17
2022/08/07 12:22:41;;;;;;;11.60;3.42;;;;;;;;;;7315685;19;154000;-22
2022/08/07 12:28:17;;;;;;;9.52;4.32;;;;;;;;;;7315107;19;163159;-17
2022/08/07 12:30:52;;;;;;;7.75;2.95;;;;;;;;;;7314812;19;155386;-15
2022/08/07 12:33:27;;;;;;;6.20;3.38;;;;;;;;;;7314421;19;154071;-16
2022/08/07 12:36:00;;;;;;;9.07;3.70;;;;;;;;;;7315346;19;162299;-16
2022/08/07 12:38:32;;;;;;;6.88;3.28;;;;;;;;;;7314749;19;162884;-16
2022/08/07 12:41:09;;;;;;;7.93;3.80;;;;;;;;;;7315234;19;154738;-16
2022/08/07 12:43:42;;;;;;;6.78;4.07;;;;;;;;;;7314714;19;154360;-16
2022/08/07 12:46:28;;;;;;;6.28;3.58;;;;;;;;;;7314563;19;162295;-17
2022/08/07 12:49:06;;;;;;;9.88;3.33;;;;;;;;;;7314339;19;163193;-16
2022/08/07 12:51:43;;;;;;;8.88;3.40;;;;;;;;;;7313775;19;154523;-16
2022/08/07 12:54:23;;;;;;;6.07;3.00;;;;;;;;;;7314945;19;153971;-17
2022/08/07 12:56:58;;;;;;;7.00;3.50;;;;;;;;;;7314529;19;162570;-16
2022/08/07 12:59:35;;;;;;;9.75;3.58;;;;;;;;;;7314489;19;162774;-16
2022/08/07 13:02:29;;;;;;;5.70;3.35;;;;;;;;;;7314632;19;154433;-16
2022/08/07 13:05:08;;;;;;;9.35;3.40;;;;;;;;;;7314921;19;153957;-16
2022/08/07 13:08:00;;;;;;;9.68;3.35;;;;;;;;;;7311518;19;165475;-16
2022/08/07 13:10:48;;;;;;;9.15;3.75;;;;;;;;;;7312688;19;162928;-16
2022/08/07 13:13:38;;;;;;;9.00;3.03;;;;;;;;;;7314312;19;154606;-15
2022/08/07 13:16:17;;;;;;;8.20;2.88;;;;;;;;;;7314180;19;154389;-15
2022/08/07 13:18:55;;;;;;;5.90;3.40;;;;;;;;;;7313744;19;162966;-15
2022/08/07 13:21:32;;;;;;;9.25;3.45;;;;;;;;;;7313628;19;162770;-15
2022/08/07 13:24:08;;;;;;;7.63;3.35;;;;;;;;;;7313993;19;154397;-15
2022/08/07 13:26:44;;;;;;;11.02;3.15;;;;;;;;;;7314101;19;153978;-16
2022/08/07 13:29:25;;;;;;;7.68;3.53;;;;;;;;;;7313218;19;162204;-16
2022/08/07 13:32:01;;;;;;;11.95;3.63;;;;;;;;;;7311940;19;162877;-16
2022/08/07 13:34:42;;;;;;;6.38;3.47;;;;;;;;;;7313414;19;154600;-16
2022/08/07 13:37:20;;;;;;;9.15;3.17;;;;;;;;;;7313632;19;154632;-15
2022/08/07 13:40:04;;;;;;;7.95;3.20;;;;;;;;;;7311409;19;162652;-15
2022/08/07 13:42:37;;;;;;;6.15;2.90;;;;;;;;;;7311221;19;162986;-14
2022/08/07 13:45:12;;;;;;;8.00;2.80;;;;;;;;;;7311176;19;154401;-15
2022/08/07 13:47:45;;;;;;;13.00;3.72;;;;;;;;;;7312584;19;154146;-15
2022/08/07 13:50:16;;;;;;;9.25;3.35;;;;;;;;;;7312657;19;162132;-15
2022/08/07 13:52:49;;;;;;;9.00;3.25;;;;;;;;;;7310674;19;162820;-16
2022/08/07 13:55:23;;;;;;;7.30;3.15;;;;;;;;;;7312868;19;153913;-16
2022/08/07 13:58:59;;;;;;;8.35;3.40;;;;;;;;;;7311263;19;154185;-16
2022/08/07 14:01:01;;;;;;;4.78;2.65;;;;;;;;;;7312460;19;162271;-16
2022/08/07 14:03:39;;;;;;;4.32;2.63;;;;;;;;;;7312623;19;162925;-16
2022/08/07 14:06:12;;;;;;;6.32;3.13;;;;;;;;;;7313377;19;154415;-16
2022/08/07 14:08:46;;;;;;;;;;;;;;;;;;7313714;19;154509;-15
2022/08/07 14:11:19;;;;;;;5.10;2.75;;;;;;;;;;7312169;19;162985;-16
2022/08/07 14:13:55;;;;;;;6.53;2.72;;;;;;;;;;7312024;19;162825;-17
2022/08/07 14:16:38;;;;;;;6.07;3.03;;;;;;;;;;7312396;19;154821;-16
2022/08/07 14:19:18;;;;;;;4.85;2.40;;;;;;;;;;7310450;19;153988;-16
2022/08/07 14:21:52;;;;;;;6.30;2.70;;;;;;;;;;7310313;19;162513;-16
2022/08/07 14:24:29;;;;;;;7.43;3.05;;;;;;;;;;7311619;19;162925;-16
2022/08/07 14:27:03;;;;;;;4.63;2.72;;;;;;;;;;7311933;19;154752;-16
2022/08/07 14:29:52;;;;;;;8.45;3.15;;;;;;;;;;7311932;19;154144;-16
2022/08/07 14:32:28;;;;;;;5.38;2.67;;;;;;;;;;7310627;19;162242;-16
2022/08/07 14:35:01;;;;;;;4.90;2.97;;;;;;;;;;7311489;19;162968;-16
2022/08/07 14:37:35;;;;;;;4.35;2.75;;;;;;;;;;7311676;19;154467;-16
2022/08/07 14:40:10;;;;;;;5.70;3.22;;;;;;;;;;7309588;19;153975;-16
2022/08/07 14:42:41;;;;;;;4.90;2.75;;;;;;;;;;7311474;19;162221;-16
2022/08/07 14:45:13;;;;;;;4.78;2.80;;;;;;;;;;7311365;19;163433;-16
2022/08/07 14:47:50;;;;;;;5.07;2.80;;;;;;;;;;7311629;19;154998;-17
2022/08/07 14:50:22;;;;;;;4.90;2.80;;;;;;;;;;7311505;19;153490;-16
2022/08/07 14:52:56;;;;;;;3.95;2.80;;;;;;;;;;7308507;19;162353;-16
2022/08/07 14:55:35;;;;;;;4.80;2.70;;;;;;;;;;7311795;19;162882;-16
2022/08/07 14:58:07;;;;;;;3.85;2.80;;;;;;;;;;7316340;19;154490;-16
2022/08/07 15:00:41;;;;;;;4.55;2.70;;;;;;;;;;7317944;19;153928;-16
2022/08/07 15:03:16;;;;;;;9.60;2.50;;;;;;;;;;7317721;19;162246;-16
2022/08/07 15:05:49;;;;;;;5.40;2.60;;;;;;;;;;7317364;19;162863;-16
2022/08/07 15:08:26;;;;;;;4.53;2.72;;;;;;;;;;7317693;19;154377;-16
2022/08/07 15:11:01;;;;;;;5.07;2.70;;;;;;;;;;7317681;19;153496;-16
2022/08/07 15:13:34;;;;;;;4.05;2.50;;;;;;;;;;7316090;19;162463;-16
2022/08/07 15:16:10;;;;;;;8.85;2.53;;;;;;;;;;7316959;19;162813;-16
2022/08/07 15:18:47;;;;;;;4.20;2.50;;;;;;;;;;7317339;19;154531;-17
2022/08/07 15:21:22;;;;;;;3.55;2.60;;;;;;;;;;7317284;19;154260;-17
2022/08/07 15:23:57;;;;;;;3.05;2.63;;;;;;;;;;7317354;19;161799;-16
2022/08/07 15:26:38;;;;;;;4.57;2.40;;;;;;;;;;7317109;19;162805;-16
2022/08/07 15:29:12;;;;;;;6.05;2.67;;;;;;;;;;7317127;19;154440;-15
2022/08/07 15:31:45;;;;;;;3.58;2.53;;;;;;;;;;7317201;19;153935;-16